Time;durP1;ratioP1;P1;durP2;ratioP2;P2;SDS_P1;SDS_P2;PMS_P1;PMS_P2;Temp;Humidity;BMP_temperature;BMP_pressure;BME280_temperature;BME280_humidity;BME280_pressure;Samples;Min_cycle;Max_cycle;Signal;HPM_P1;HPM_P2
2021/06/04 00:01:50;;;;;;;24.85;22.25;;;21.40;99.90;;;;;;4979030;28;20061;-78
2021/06/04 00:04:17;;;;;;;24.48;20.60;;;21.50;99.90;;;;;;4989048;22;20057;-78
2021/06/04 00:06:47;;;;;;;23.25;20.67;;;21.50;99.90;;;;;;5015574;28;20054;-79
2021/06/04 00:09:15;;;;;;;22.77;20.40;;;21.50;99.90;;;;;;5020664;28;20045;-79
2021/06/04 00:11:44;;;;;;;22.83;20.52;;;21.50;99.90;;;;;;5024267;28;20054;-78
2021/06/04 00:14:13;;;;;;;26.13;21.80;;;21.40;99.90;;;;;;5017261;28;20077;-77
2021/06/04 00:16:45;;;;;;;23.65;20.52;;;21.40;99.90;;;;;;5014336;28;20137;-79
2021/06/04 00:19:13;;;;;;;;;;;21.40;99.90;;;;;;5020997;28;20487;-79
2021/06/04 00:21:45;;;;;;;24.80;21.90;;;21.40;99.90;;;;;;5017639;28;20071;-80
2021/06/04 00:24:43;;;;;;;26.90;24.10;;;21.30;99.90;;;;;;5015977;28;20054;-80
2021/06/04 00:27:11;;;;;;;27.80;24.30;;;21.20;99.90;;;;;;5019830;28;20418;-79
2021/06/04 00:30:01;;;;;;;29.02;24.70;;;21.20;99.90;;;;;;5018747;28;20050;-78
2021/06/04 00:32:43;;;;;;;24.95;22.50;;;21.10;99.90;;;;;;5016953;28;20046;-79
2021/06/04 00:35:20;;;;;;;24.47;21.87;;;21.20;99.90;;;;;;5018551;28;20516;-80
2021/06/04 00:37:50;;;;;;;24.08;21.48;;;21.20;99.90;;;;;;5017109;28;20081;-79
2021/06/04 00:40:45;;;;;;;24.17;21.60;;;21.10;99.90;;;;;;5020018;28;20060;-78
2021/06/04 00:43:14;;;;;;;25.08;22.25;;;21.10;99.90;;;;;;5016181;28;20046;-78
2021/06/04 00:45:44;;;;;;;24.92;21.92;;;21.10;99.90;;;;;;5016584;28;20109;-78
2021/06/04 00:48:12;;;;;;;23.65;21.25;;;21.10;99.90;;;;;;5019317;28;20050;-78
2021/06/04 00:50:42;;;;;;;22.65;20.25;;;21.10;99.90;;;;;;5021189;28;20053;-79
2021/06/04 00:53:09;;;;;;;21.45;19.25;;;21.10;99.90;;;;;;5020157;28;20487;-78
2021/06/04 00:55:36;;;;;;;20.20;17.95;;;21.10;99.90;;;;;;5019792;28;20050;-78
2021/06/04 00:58:04;;;;;;;20.67;18.65;;;21.10;99.90;;;;;;5023797;28;20080;-78
2021/06/04 01:00:34;;;;;;;21.73;17.40;;;21.00;99.90;;;;;;5020910;28;20116;-78
2021/06/04 01:03:02;;;;;;;21.10;18.13;;;21.00;99.90;;;;;;5025663;28;20125;-80
2021/06/04 01:05:31;;;;;;;19.17;17.02;;;21.00;99.90;;;;;;5028537;28;20054;-77
2021/06/04 01:08:13;;;;;;;22.77;17.70;;;21.00;99.90;;;;;;5030863;28;20061;-79
2021/06/04 01:10:53;;;;;;;19.98;16.45;;;21.00;99.90;;;;;;5036802;28;20037;-80
2021/06/04 01:13:23;;;;;;;19.50;17.55;;;20.90;99.90;;;;;;5036503;28;20053;-79
2021/06/04 01:16:06;;;;;;;20.05;17.92;;;20.90;99.90;;;;;;5036020;28;20052;-79
2021/06/04 01:18:54;;;;;;;23.00;18.73;;;20.90;99.90;;;;;;5035925;28;20084;-79
2021/06/04 01:21:31;;;;;;;20.20;18.17;;;20.90;99.90;;;;;;5024683;28;20110;-79
2021/06/04 01:24:08;;;;;;;19.80;17.63;;;20.90;99.90;;;;;;5019873;28;20077;-77
2021/06/04 01:26:42;;;;;;;21.25;18.17;;;21.00;99.90;;;;;;5027790;28;20049;-79
2021/06/04 01:29:12;;;;;;;20.65;18.48;;;21.00;99.90;;;;;;5028374;28;20053;-80
2021/06/04 01:31:43;;;;;;;21.63;17.60;;;21.00;99.90;;;;;;5028329;28;20145;-79
2021/06/04 01:34:14;;;;;;;23.48;18.77;;;21.10;99.90;;;;;;5027016;28;20137;-80
2021/06/04 01:36:46;;;;;;;19.73;17.73;;;21.10;99.90;;;;;;5024885;28;20046;-79
2021/06/04 01:39:14;;;;;;;;;;;21.00;99.90;;;;;;5022789;28;20057;-80
2021/06/04 01:41:44;;;;;;;21.23;17.52;;;21.00;99.90;;;;;;5021991;28;19921;-79
2021/06/04 01:44:16;;;;;;;21.63;18.02;;;20.90;99.90;;;;;;5018381;28;20124;-79
2021/06/04 01:46:47;;;;;;;20.98;18.08;;;20.80;99.90;;;;;;5021640;28;20076;-80
2021/06/04 01:49:18;;;;;;;21.02;18.55;;;20.60;99.90;;;;;;5022232;28;20186;-80
2021/06/04 01:51:48;;;;;;;21.77;18.88;;;20.50;99.90;;;;;;5021904;28;20057;-79
2021/06/04 01:54:20;;;;;;;21.27;18.70;;;20.50;99.90;;;;;;5021072;28;20088;-80
2021/06/04 01:56:54;;;;;;;24.83;18.60;;;20.60;99.90;;;;;;5022717;28;20097;-79
2021/06/04 01:59:23;;;;;;;19.85;17.92;;;20.50;99.90;;;;;;5023260;28;20046;-78
2021/06/04 02:01:51;;;;;;;26.08;20.08;;;20.50;99.90;;;;;;5019131;28;20124;-80
2021/06/04 02:04:22;;;;;;;21.83;19.63;;;20.40;99.90;;;;;;5024314;28;20050;-79
2021/06/04 02:06:50;;;;;;;22.92;20.30;;;20.50;99.90;;;;;;5025707;28;20076;-80
2021/06/04 02:09:19;;;;;;;22.17;19.23;;;20.50;99.90;;;;;;5024059;28;20085;-80
2021/06/04 02:11:47;;;;;;;21.33;19.13;;;20.50;99.90;;;;;;5024371;28;20069;-79
2021/06/04 02:14:18;;;;;;;22.85;19.63;;;20.60;99.90;;;;;;5024303;28;20443;-79
2021/06/04 02:16:54;;;;;;;21.20;18.90;;;20.60;99.90;;;;;;5025945;28;20053;-81
2021/06/04 02:19:29;;;;;;;20.88;18.70;;;20.60;99.90;;;;;;5025571;28;20287;-81
2021/06/04 02:22:01;;;;;;;22.98;19.80;;;20.70;99.90;;;;;;5021139;28;20050;-81
2021/06/04 02:24:30;;;;;;;;;;;20.60;99.90;;;;;;5024216;28;20066;-80
2021/06/04 02:27:02;;;;;;;22.08;19.23;;;20.60;99.90;;;;;;5027259;28;19976;-80
2021/06/04 02:29:33;;;;;;;20.30;18.20;;;20.60;99.90;;;;;;5018984;28;20078;-80
2021/06/04 02:32:06;;;;;;;21.33;19.13;;;20.60;99.90;;;;;;5022754;28;20050;-80
2021/06/04 02:34:34;;;;;;;;;;;20.50;99.90;;;;;;5022389;28;20046;-80
2021/06/04 02:37:07;;;;;;;22.88;19.55;;;20.50;99.90;;;;;;5023985;28;20297;-79
2021/06/04 02:39:38;;;;;;;23.27;19.83;;;20.30;99.90;;;;;;5030124;28;20518;-79
2021/06/04 02:42:11;;;;;;;21.83;19.38;;;20.30;99.90;;;;;;5027497;28;20049;-80
2021/06/04 02:44:40;;;;;;;;;;;20.30;99.90;;;;;;5022781;28;20073;-81
2021/06/04 02:47:11;;;;;;;23.15;20.10;;;20.30;99.90;;;;;;5019229;28;19985;-79
2021/06/04 02:49:40;;;;;;;21.67;19.25;;;20.30;99.90;;;;;;5019992;28;20132;-79
2021/06/04 02:52:29;;;;;;;21.85;19.52;;;20.30;99.90;;;;;;5019752;28;20106;-80
2021/06/04 02:54:56;;;;;;;21.23;19.02;;;20.30;99.90;;;;;;5019349;28;20082;-79
2021/06/04 02:57:27;;;;;;;21.65;19.33;;;20.20;99.90;;;;;;5018928;28;20499;-79
2021/06/04 02:59:54;;;;;;;21.98;18.92;;;20.20;99.90;;;;;;5018325;28;20053;-80
2021/06/04 03:02:23;;;;;;;20.85;18.65;;;20.20;99.90;;;;;;5018318;28;20149;-80
2021/06/04 03:04:52;;;;;;;21.52;19.23;;;20.20;99.90;;;;;;5019498;28;20141;-80
2021/06/04 03:07:26;;;;;;;20.40;18.25;;;20.20;99.90;;;;;;5022444;28;20151;-78
2021/06/04 03:09:54;;;;;;;21.27;18.80;;;20.30;99.90;;;;;;5023174;28;20077;-79
2021/06/04 03:12:27;;;;;;;19.92;17.83;;;20.30;99.90;;;;;;5021776;28;20048;-77
2021/06/04 03:14:56;;;;;;;21.88;18.75;;;20.30;99.90;;;;;;5018015;28;20054;-79
2021/06/04 03:17:24;;;;;;;21.02;18.80;;;20.30;99.90;;;;;;5021820;28;20149;-78
2021/06/04 03:19:51;;;;;;;20.17;18.02;;;20.30;99.90;;;;;;5023863;28;20073;-77
2021/06/04 03:22:24;;;;;;;20.70;18.10;;;20.30;99.90;;;;;;5022539;28;20076;-79
2021/06/04 03:24:50;;;;;;;20.55;18.45;;;20.30;99.90;;;;;;5019795;28;20111;-79
2021/06/04 03:27:20;;;;;;;20.88;18.23;;;20.30;99.90;;;;;;5021974;28;20133;-78
2021/06/04 03:29:48;;;;;;;20.90;18.48;;;20.30;99.90;;;;;;5019370;28;20096;-77
2021/06/04 03:32:16;;;;;;;21.23;18.98;;;20.30;99.90;;;;;;5022197;28;20088;-79
2021/06/04 03:34:45;;;;;;;21.20;18.27;;;20.30;99.90;;;;;;5020258;28;20054;-79
2021/06/04 03:37:12;;;;;;;21.10;18.77;;;20.30;99.90;;;;;;5030311;28;20070;-81
2021/06/04 03:39:41;;;;;;;22.35;17.95;;;20.30;99.90;;;;;;5030854;28;20045;-79
2021/06/04 03:42:13;;;;;;;19.33;17.35;;;20.30;99.90;;;;;;5024795;28;20143;-78
2021/06/04 03:44:42;;;;;;;21.77;17.55;;;20.30;99.90;;;;;;5019497;28;20050;-79
2021/06/04 03:47:11;;;;;;;25.60;18.60;;;20.30;99.90;;;;;;5017327;28;20054;-78
2021/06/04 03:49:38;;;;;;;20.23;18.05;;;20.20;99.90;;;;;;5019750;28;20117;-80
2021/06/04 03:52:07;;;;;;;19.90;17.90;;;20.20;99.90;;;;;;5019348;28;20060;-79
2021/06/04 03:54:37;;;;;;;23.08;18.65;;;20.10;99.90;;;;;;5019580;28;20148;-80
2021/06/04 03:57:07;;;;;;;21.77;19.38;;;20.00;99.90;;;;;;5022436;28;20212;-80
2021/06/04 03:59:34;;;;;;;22.98;19.30;;;19.80;99.90;;;;;;5025713;28;20097;-80
2021/06/04 04:02:03;;;;;;;24.20;19.58;;;19.70;99.90;;;;;;5026254;28;20081;-80
2021/06/04 04:04:34;;;;;;;24.30;19.23;;;19.70;99.90;;;;;;5025469;28;20088;-80
2021/06/04 04:07:00;;;;;;;21.50;19.27;;;19.80;99.90;;;;;;5025854;28;20080;-79
2021/06/04 04:09:26;;;;;;;20.70;18.52;;;19.90;99.90;;;;;;5024099;28;20081;-78
2021/06/04 04:11:54;;;;;;;20.75;18.67;;;19.90;99.90;;;;;;5019931;28;20518;-77
2021/06/04 04:14:21;;;;;;;20.58;18.55;;;20.00;99.90;;;;;;5019118;28;20470;-79
2021/06/04 04:16:47;;;;;;;22.13;19.30;;;20.10;99.90;;;;;;5027768;28;20529;-79
2021/06/04 04:19:14;;;;;;;21.40;19.13;;;20.00;99.90;;;;;;5032276;28;20096;-79
2021/06/04 04:21:42;;;;;;;20.33;18.23;;;19.90;99.90;;;;;;5020050;28;20057;-79
2021/06/04 04:24:17;;;;;;;20.58;18.42;;;20.10;99.90;;;;;;5018049;28;20096;-80
2021/06/04 04:26:45;;;;;;;18.63;16.83;;;20.20;99.90;;;;;;5018573;28;20089;-79
2021/06/04 04:29:12;;;;;;;18.42;16.50;;;20.30;99.90;;;;;;5019214;28;20108;-80
2021/06/04 04:31:43;;;;;;;21.23;15.50;;;20.50;99.90;;;;;;5021680;28;20196;-79
2021/06/04 04:34:10;;;;;;;17.77;16.02;;;20.60;99.90;;;;;;5019828;28;20093;-79
2021/06/04 04:36:40;;;;;;;19.35;16.67;;;20.70;99.90;;;;;;5020317;28;20099;-80
2021/06/04 04:39:11;;;;;;;17.60;15.70;;;20.90;99.90;;;;;;5023252;28;20088;-81
2021/06/04 04:41:37;;;;;;;18.02;15.82;;;21.00;99.90;;;;;;5023274;28;20062;-80
2021/06/04 04:44:05;;;;;;;19.25;16.40;;;21.10;99.90;;;;;;5022336;28;20109;-79
2021/06/04 04:46:32;;;;;;;19.85;16.98;;;21.10;99.90;;;;;;5019955;28;20046;-79
2021/06/04 04:48:58;;;;;;;19.45;17.52;;;21.10;99.90;;;;;;5015397;28;20061;-79
2021/06/04 04:51:27;;;;;;;19.63;16.42;;;21.10;99.90;;;;;;5015481;28;20484;-78
2021/06/04 04:53:53;;;;;;;21.98;16.45;;;21.10;99.90;;;;;;5015969;28;20046;-79
2021/06/04 04:56:23;;;;;;;18.80;16.58;;;21.00;99.90;;;;;;5016886;28;20093;-79
2021/06/04 04:58:49;;;;;;;18.00;16.30;;;21.00;99.90;;;;;;5016533;28;20092;-77
2021/06/04 05:01:16;;;;;;;18.52;16.63;;;21.00;99.90;;;;;;5013667;28;20049;-79
2021/06/04 05:03:43;;;;;;;19.75;17.00;;;21.00;99.90;;;;;;5017071;28;20134;-79
2021/06/04 05:06:11;;;;;;;17.90;16.00;;;21.00;99.90;;;;;;5018291;28;20054;-81
2021/06/04 05:08:38;;;;;;;17.80;16.10;;;21.10;99.90;;;;;;5024574;28;20141;-80
2021/06/04 05:11:05;;;;;;;18.75;16.95;;;21.10;99.90;;;;;;5018507;28;20132;-78
2021/06/04 05:13:34;;;;;;;19.20;15.60;;;21.20;99.90;;;;;;5014459;28;20619;-79
2021/06/04 05:16:03;;;;;;;19.73;16.48;;;21.20;99.90;;;;;;5013586;28;20132;-79
2021/06/04 05:18:30;;;;;;;18.02;16.23;;;21.20;99.90;;;;;;5013540;28;20057;-79
2021/06/04 05:20:57;;;;;;;18.08;16.13;;;21.10;99.90;;;;;;5014480;28;20494;-78
2021/06/04 05:23:24;;;;;;;21.05;17.83;;;21.10;99.90;;;;;;5012950;28;20045;-79
2021/06/04 05:25:51;;;;;;;17.95;16.08;;;21.20;99.90;;;;;;5012471;28;20139;-78
2021/06/04 05:28:20;;;;;;;24.77;18.00;;;21.40;99.90;;;;;;5013256;28;20540;-80
2021/06/04 05:30:50;;;;;;;18.77;16.77;;;21.50;99.90;;;;;;5017134;28;20389;-79
2021/06/04 05:33:19;;;;;;;17.75;15.98;;;21.60;99.90;;;;;;5018404;28;20136;-79
2021/06/04 05:35:46;;;;;;;18.52;16.65;;;21.80;99.90;;;;;;5017880;28;20561;-79
2021/06/04 05:38:12;;;;;;;19.02;16.38;;;21.90;99.90;;;;;;5022315;28;20061;-79
2021/06/04 05:40:41;;;;;;;21.88;16.65;;;22.10;99.90;;;;;;5023663;28;20054;-79
2021/06/04 05:43:10;;;;;;;19.48;17.08;;;22.10;99.90;;;;;;5023402;28;20049;-79
2021/06/04 05:45:41;;;;;;;20.02;17.58;;;22.20;99.90;;;;;;5025181;28;20119;-80
2021/06/04 05:48:11;;;;;;;21.77;17.40;;;22.40;99.90;;;;;;5021202;28;20105;-79
2021/06/04 05:50:41;;;;;;;20.35;18.08;;;22.70;99.90;;;;;;5019367;28;20135;-79
2021/06/04 05:53:10;;;;;;;20.30;18.08;;;22.80;99.90;;;;;;5018153;28;20046;-80
2021/06/04 05:55:38;;;;;;;22.10;18.25;;;22.80;99.90;;;;;;5020196;28;20426;-80
2021/06/04 05:58:05;;;;;;;20.67;18.50;;;23.00;99.90;;;;;;5021102;28;20084;-80
2021/06/04 06:00:35;;;;;;;21.40;18.85;;;23.10;99.90;;;;;;5020772;28;20077;-80
2021/06/04 06:03:04;;;;;;;22.25;19.88;;;23.20;99.90;;;;;;5022598;28;20070;-81
2021/06/04 06:05:34;;;;;;;22.80;19.65;;;23.20;99.90;;;;;;5008637;23;20081;-82
2021/06/04 06:08:00;;;;;;;21.92;19.08;;;23.20;99.90;;;;;;4957455;28;20466;-79
2021/06/04 06:10:39;;;;;;;22.23;19.35;;;23.30;99.90;;;;;;4972244;28;20415;-79
2021/06/04 06:16:55;;;;;;;21.65;19.42;;;23.30;99.90;;;;;;5049633;22;20053;-80
2021/06/04 06:19:26;;;;;;;21.38;19.08;;;23.20;99.90;;;;;;5018534;28;20065;-78
2021/06/04 06:21:54;;;;;;;21.77;19.48;;;23.10;99.90;;;;;;5023147;28;20050;-78
2021/06/04 06:24:21;;;;;;;20.63;18.42;;;23.00;99.90;;;;;;5007352;28;20092;-80
2021/06/04 06:26:48;;;;;;;22.60;20.08;;;22.80;99.90;;;;;;5015823;28;20071;-78
2021/06/04 06:29:22;;;;;;;23.75;20.38;;;22.60;99.90;;;;;;5018593;28;20521;-79
2021/06/04 06:31:48;;;;;;;22.63;20.15;;;22.40;99.90;;;;;;5023906;28;20073;-80
2021/06/04 06:34:15;;;;;;;25.38;19.25;;;22.30;99.90;;;;;;5030297;28;20081;-81
2021/06/04 06:36:44;;;;;;;21.08;18.58;;;22.50;99.90;;;;;;5019382;28;20064;-80
2021/06/04 06:39:15;;;;;;;20.77;18.67;;;22.80;99.90;;;;;;5027416;28;20049;-79
2021/06/04 06:41:43;;;;;;;20.15;16.75;;;23.40;99.90;;;;;;5023555;28;20052;-80
2021/06/04 06:44:11;;;;;;;19.52;17.33;;;23.90;99.90;;;;;;5025860;28;20085;-80
2021/06/04 06:46:38;;;;;;;20.13;17.38;;;24.00;99.90;;;;;;5007995;28;20854;-79
2021/06/04 06:49:05;;;;;;;18.98;17.08;;;24.30;99.90;;;;;;5024613;28;20072;-78
2021/06/04 06:51:33;;;;;;;18.70;16.80;;;24.60;99.90;;;;;;5036121;28;20042;-77
2021/06/04 06:54:00;;;;;;;23.25;17.60;;;24.90;99.90;;;;;;5039716;28;20041;-78
2021/06/04 06:56:28;;;;;;;20.02;17.48;;;25.10;99.90;;;;;;5027887;28;20081;-78
2021/06/04 06:58:54;;;;;;;20.25;17.63;;;25.40;99.90;;;;;;5013226;28;20552;-78
2021/06/04 07:01:21;;;;;;;21.05;18.83;;;25.70;99.90;;;;;;5016309;28;20154;-79
2021/06/04 07:03:47;;;;;;;22.90;18.90;;;25.60;99.90;;;;;;5014767;28;20133;-78
2021/06/04 07:06:17;;;;;;;24.13;19.40;;;25.50;99.90;;;;;;5015217;28;20573;-78
2021/06/04 07:08:44;;;;;;;21.63;19.58;;;25.60;99.90;;;;;;5012158;28;20183;-79
2021/06/04 07:11:10;;;;;;;20.90;18.80;;;25.50;99.90;;;;;;5014807;28;20081;-79
2021/06/04 07:13:38;;;;;;;22.60;19.38;;;25.50;99.90;;;;;;5014006;28;20077;-77
2021/06/04 07:16:08;;;;;;;29.00;20.08;;;25.50;99.90;;;;;;5013937;28;20049;-78
2021/06/04 07:18:34;;;;;;;22.60;20.17;;;25.40;99.90;;;;;;5014466;28;20137;-79
2021/06/04 07:21:01;;;;;;;25.45;20.35;;;25.10;99.90;;;;;;5014653;28;20561;-79
2021/06/04 07:23:29;;;;;;;25.05;20.10;;;25.10;99.90;;;;;;5014208;28;20583;-78
2021/06/04 07:25:57;;;;;;;24.67;20.15;;;25.10;99.90;;;;;;5014093;28;20133;-78
2021/06/04 07:28:27;;;;;;;23.70;21.23;;;25.00;99.90;;;;;;5014632;28;20143;-78
2021/06/04 07:30:57;;;;;;;24.55;21.95;;;25.00;99.90;;;;;;5014189;28;20085;-78
2021/06/04 07:33:26;;;;;;;25.13;20.83;;;24.90;99.90;;;;;;5013549;28;20096;-77
2021/06/04 07:35:54;;;;;;;22.73;20.33;;;25.10;99.90;;;;;;5013709;28;20133;-77
2021/06/04 07:38:21;;;;;;;25.00;20.65;;;25.20;99.90;;;;;;5013690;28;20088;-77
2021/06/04 07:40:48;;;;;;;22.67;20.33;;;25.40;99.90;;;;;;5013510;28;20128;-78
2021/06/04 07:43:19;;;;;;;23.35;20.85;;;25.50;99.90;;;;;;5013056;28;20482;-78
2021/06/04 07:45:46;;;;;;;22.88;20.48;;;25.40;99.90;;;;;;5013351;28;20133;-78
2021/06/04 07:48:16;;;;;;;22.65;20.35;;;25.40;99.90;;;;;;5013126;28;20077;-77
2021/06/04 07:50:44;;;;;;;24.65;20.25;;;25.50;99.90;;;;;;5013501;28;20064;-78
2021/06/04 07:53:13;;;;;;;28.75;20.02;;;25.80;99.90;;;;;;5013194;28;20471;-77
2021/06/04 07:55:40;;;;;;;22.15;19.42;;;26.00;99.90;;;;;;5012917;28;20140;-77
2021/06/04 07:58:06;;;;;;;22.15;19.50;;;26.30;99.90;;;;;;5013139;28;20057;-77
2021/06/04 08:00:35;;;;;;;20.73;18.73;;;26.30;99.90;;;;;;5013096;28;20088;-77
2021/06/04 08:03:04;;;;;;;22.65;19.08;;;27.00;99.90;;;;;;5012530;28;20540;-78
2021/06/04 08:05:33;;;;;;;21.02;18.80;;;27.60;99.90;;;;;;5013185;28;20128;-78
2021/06/04 08:08:02;;;;;;;22.58;19.70;;;27.70;99.90;;;;;;5013083;28;20077;-78
2021/06/04 08:10:28;;;;;;;22.02;19.65;;;27.70;99.90;;;;;;5012821;28;20140;-77
2021/06/04 08:12:54;;;;;;;20.20;17.70;;;27.60;99.90;;;;;;5012557;28;20136;-78
2021/06/04 08:15:29;;;;;;;20.35;18.17;;;28.00;99.90;;;;;;5012765;28;20505;-78
2021/06/04 08:17:55;;;;;;;19.52;17.60;;;28.50;99.90;;;;;;5012997;28;20132;-78
2021/06/04 08:20:27;;;;;;;18.40;16.40;;;28.90;99.90;;;;;;5013198;28;20156;-78
2021/06/04 08:22:58;;;;;;;20.30;18.15;;;29.50;99.90;;;;;;5012575;28;20057;-78
2021/06/04 08:25:27;;;;;;;20.77;17.93;;;29.70;99.90;;;;;;5012649;28;20081;-79
2021/06/04 08:27:53;;;;;;;17.80;14.95;;;29.70;99.90;;;;;;5012615;28;20089;-79
2021/06/04 08:30:21;;;;;;;18.10;15.88;;;29.90;99.90;;;;;;5012943;28;20132;-78
2021/06/04 08:32:47;;;;;;;18.23;16.20;;;30.00;99.90;;;;;;5012704;28;20050;-78
2021/06/04 08:35:14;;;;;;;19.20;16.15;;;30.30;99.90;;;;;;5011453;28;20053;-79
2021/06/04 08:37:41;;;;;;;18.90;16.90;;;30.40;99.90;;;;;;5013972;28;20259;-81
2021/06/04 08:40:13;;;;;;;18.25;16.35;;;30.50;99.90;;;;;;5014836;28;20467;-79
2021/06/04 08:42:52;;;;;;;18.77;16.52;;;30.60;99.90;;;;;;5012486;28;20139;-79
2021/06/04 08:45:36;;;;;;;23.70;17.60;;;30.60;99.90;;;;;;5012705;28;20077;-78
2021/06/04 08:48:18;;;;;;;19.58;16.85;;;30.60;99.90;;;;;;5012762;28;20053;-79
2021/06/04 08:50:52;;;;;;;22.58;16.27;;;30.70;99.90;;;;;;5012856;28;20529;-78
2021/06/04 08:53:22;;;;;;;18.08;15.82;;;30.90;99.90;;;;;;5012925;28;20537;-79
2021/06/04 08:55:59;;;;;;;23.60;19.55;;;31.00;99.90;;;;;;5013766;28;20077;-79
2021/06/04 08:58:46;;;;;;;21.58;19.45;;;30.70;99.90;;;;;;5013862;28;20053;-80
2021/06/04 09:01:16;;;;;;;20.30;18.20;;;30.30;99.90;;;;;;5015015;28;20045;-80
2021/06/04 09:03:47;;;;;;;20.60;18.50;;;29.70;99.90;;;;;;5014777;28;20120;-80
2021/06/04 09:06:26;;;;;;;19.85;17.85;;;29.60;99.90;;;;;;5013654;28;20073;-81
2021/06/04 09:08:53;;;;;;;21.17;18.33;;;29.30;99.90;;;;;;5013091;28;20092;-79
2021/06/04 09:11:28;;;;;;;24.65;21.17;;;29.60;99.90;;;;;;5012495;28;20116;-80
2021/06/04 09:13:54;;;;;;;25.67;23.05;;;29.60;99.90;;;;;;5012192;28;20053;-79
2021/06/04 09:16:30;;;;;;;23.42;19.33;;;29.80;99.90;;;;;;5013476;28;20092;-79
2021/06/04 09:19:03;;;;;;;23.00;20.88;;;29.70;99.90;;;;;;5012442;28;20494;-78
2021/06/04 09:21:33;;;;;;;22.70;20.38;;;29.60;99.90;;;;;;5010626;28;20053;-78
2021/06/04 09:24:02;;;;;;;21.33;19.02;;;29.40;99.90;;;;;;5011749;28;20136;-78
2021/06/04 09:26:31;;;;;;;21.02;18.83;;;29.60;99.90;;;;;;5013427;28;20196;-79
2021/06/04 09:29:15;;;;;;;23.38;21.08;;;29.20;99.90;;;;;;5013190;28;20149;-79
2021/06/04 09:31:44;;;;;;;22.13;19.90;;;29.30;99.90;;;;;;5013638;28;20088;-79
2021/06/04 09:34:15;;;;;;;23.35;19.25;;;29.30;99.90;;;;;;5013999;28;20633;-79
2021/06/04 09:36:46;;;;;;;22.98;20.45;;;29.30;99.90;;;;;;5014475;28;20096;-79
2021/06/04 09:39:24;;;;;;;24.73;20.88;;;29.00;99.90;;;;;;5014171;28;20126;-78
2021/06/04 09:41:53;;;;;;;23.98;20.77;;;28.40;99.90;;;;;;5013905;28;20061;-78
2021/06/04 09:44:27;;;;;;;22.23;19.95;;;28.60;99.90;;;;;;5012992;28;20077;-80
2021/06/04 09:47:02;;;;;;;21.48;19.20;;;28.70;99.90;;;;;;5015465;28;20123;-79
2021/06/04 09:49:37;;;;;;;23.65;21.20;;;28.60;99.90;;;;;;5016884;28;20053;-79
2021/06/04 09:52:29;;;;;;;22.77;18.67;;;28.60;99.90;;;;;;5017704;28;20132;-81
2021/06/04 09:55:14;;;;;;;23.58;19.33;;;28.40;99.90;;;;;;5018445;28;20081;-81
2021/06/04 09:57:58;;;;;;;26.25;19.48;;;28.20;99.90;;;;;;5019403;28;20080;-79
2021/06/04 10:00:29;;;;;;;22.52;19.67;;;28.00;99.90;;;;;;5018331;28;20463;-79
2021/06/04 10:03:07;;;;;;;23.13;20.70;;;27.80;99.90;;;;;;5017493;28;20092;-81
2021/06/04 10:05:35;;;;;;;23.55;20.55;;;27.70;99.90;;;;;;5017592;28;20180;-79
2021/06/04 10:08:06;;;;;;;20.98;17.55;;;27.40;99.90;;;;;;5017568;28;20128;-79
2021/06/04 10:10:36;;;;;;;24.25;21.63;;;27.50;99.90;;;;;;5019776;28;20060;-78
2021/06/04 10:13:13;;;;;;;20.92;18.75;;;27.60;99.90;;;;;;5017180;28;20521;-79
2021/06/04 10:15:45;;;;;;;21.00;16.67;;;27.80;99.90;;;;;;5019308;28;20038;-81
2021/06/04 10:18:26;;;;;;;22.02;16.73;;;28.00;99.90;;;;;;5017828;28;20082;-80
2021/06/04 10:21:09;;;;;;;21.20;17.95;;;28.10;99.90;;;;;;5021422;28;20276;-80
2021/06/04 10:23:39;;;;;;;15.32;12.70;;;27.80;99.90;;;;;;5021180;28;20042;-79
2021/06/04 10:26:25;;;;;;;15.68;13.80;;;27.90;99.90;;;;;;5019716;28;20049;-79
2021/06/04 10:28:58;;;;;;;13.48;11.38;;;27.90;99.90;;;;;;5021235;28;20054;-80
2021/06/04 10:31:38;;;;;;;18.63;14.60;;;27.70;99.90;;;;;;5019002;28;20050;-79
2021/06/04 10:34:18;;;;;;;19.27;14.32;;;27.70;99.90;;;;;;5020004;28;20139;-78
2021/06/04 10:36:51;;;;;;;18.95;13.10;;;27.50;99.90;;;;;;5018134;28;20054;-79
2021/06/04 10:39:22;;;;;;;18.38;13.68;;;27.80;99.90;;;;;;5019461;28;20484;-79
2021/06/04 10:42:05;;;;;;;18.63;15.85;;;28.10;99.90;;;;;;5017594;28;20506;-79
2021/06/04 10:44:46;;;;;;;21.00;16.65;;;28.30;99.90;;;;;;5021024;28;20050;-80
2021/06/04 10:47:23;;;;;;;19.17;15.02;;;28.40;99.90;;;;;;5017470;28;20050;-79
2021/06/04 10:50:20;;;;;;;20.70;16.30;;;28.60;99.90;;;;;;5017259;28;20065;-81
2021/06/04 10:52:55;;;;;;;20.60;15.63;;;28.60;99.90;;;;;;5016979;28;20133;-79
2021/06/04 10:55:26;;;;;;;19.92;16.42;;;28.50;99.90;;;;;;5016850;28;20061;-79
2021/06/04 10:58:03;;;;;;;24.48;15.63;;;28.50;99.90;;;;;;5016015;28;20054;-78
2021/06/04 11:00:37;;;;;;;17.48;14.65;;;28.40;99.90;;;;;;5016512;28;20084;-79
2021/06/04 11:03:11;;;;;;;19.60;17.33;;;28.80;99.90;;;;;;5016545;28;20076;-78
2021/06/04 11:05:45;;;;;;;18.17;16.20;;;29.00;99.90;;;;;;5017275;28;20092;-79
2021/06/04 11:08:21;;;;;;;21.17;17.30;;;29.10;99.90;;;;;;5019858;28;20096;-80
2021/06/04 11:10:57;;;;;;;21.63;17.08;;;29.10;99.90;;;;;;5016559;28;20132;-79
2021/06/04 11:13:46;;;;;;;19.45;16.67;;;29.00;99.90;;;;;;5017686;28;20133;-79
2021/06/04 11:16:26;;;;;;;20.27;18.08;;;28.70;99.90;;;;;;5015034;28;20085;-78
2021/06/04 11:18:58;;;;;;;23.38;17.95;;;28.50;99.90;;;;;;5014147;28;20046;-78
2021/06/04 11:21:33;;;;;;;20.45;16.48;;;28.40;99.90;;;;;;5015687;28;20046;-78
2021/06/04 11:24:07;;;;;;;20.15;15.27;;;28.50;99.90;;;;;;5014588;28;20054;-79
2021/06/04 11:26:37;;;;;;;20.95;17.25;;;28.50;99.90;;;;;;5015985;28;20108;-79
2021/06/04 11:29:07;;;;;;;19.00;17.08;;;28.70;99.90;;;;;;5023567;28;20085;-79
2021/06/04 11:31:56;;;;;;;23.45;20.92;;;28.90;99.90;;;;;;5034009;28;20103;-79
2021/06/04 11:34:33;;;;;;;23.25;20.75;;;28.90;99.90;;;;;;5035833;28;20054;-81
2021/06/04 11:37:01;;;;;;;22.08;19.42;;;28.90;99.90;;;;;;5025477;28;20510;-79
2021/06/04 11:39:33;;;;;;;20.90;18.67;;;29.00;99.90;;;;;;5016982;28;20054;-79
2021/06/04 11:42:12;;;;;;;19.65;17.75;;;29.20;99.90;;;;;;5018617;28;20106;-80
2021/06/04 11:44:43;;;;;;;18.77;17.02;;;29.30;99.90;;;;;;5017672;28;20049;-79
2021/06/04 11:47:33;;;;;;;21.83;19.63;;;29.10;99.90;;;;;;5016328;28;20049;-79
2021/06/04 11:50:10;;;;;;;19.80;17.73;;;28.90;99.90;;;;;;5016777;28;20554;-78
2021/06/04 11:52:39;;;;;;;22.17;19.55;;;29.00;99.90;;;;;;5017049;28;20429;-80
2021/06/04 11:55:13;;;;;;;21.73;16.98;;;29.10;99.90;;;;;;5003503;28;20050;-80
2021/06/04 11:57:47;;;;;;;23.70;21.30;;;29.40;99.90;;;;;;4998310;28;20137;-79
2021/06/04 12:00:47;;;;;;;23.70;21.42;;;29.60;99.90;;;;;;4999399;28;20068;-80
2021/06/04 12:03:30;;;;;;;26.25;23.52;;;29.70;99.90;;;;;;4920115;29;20087;-80
2021/06/04 12:06:18;;;;;;;26.85;24.05;;;29.60;99.90;;;;;;4921376;29;20079;-79
2021/06/04 12:08:45;;;;;;;24.35;21.10;;;29.50;99.90;;;;;;4976123;28;20125;-81
2021/06/04 12:11:32;;;;;;;22.70;19.80;;;29.10;99.90;;;;;;4998677;28;20457;-79
2021/06/04 12:17:26;;;;;;;22.80;19.85;;;28.70;99.90;;;;;;5022086;28;20069;-81
2021/06/04 12:20:38;;;;;;;21.35;19.13;;;28.50;99.90;;;;;;5025868;28;20054;-81
2021/06/04 12:23:08;;;;;;;18.92;16.92;;;28.50;99.90;;;;;;5027575;28;20049;-82
2021/06/04 12:25:58;;;;;;;20.98;19.00;;;28.60;99.90;;;;;;5027630;28;20447;-83
2021/06/04 12:28:38;;;;;;;20.58;18.20;;;28.90;99.90;;;;;;5026434;28;20054;-83
2021/06/04 12:31:22;;;;;;;22.80;18.38;;;29.00;99.90;;;;;;5026459;28;20061;-82
2021/06/04 12:33:52;;;;;;;23.65;19.52;;;29.10;99.90;;;;;;5014410;28;20102;-84
2021/06/04 12:36:55;;;;;;;23.02;20.05;;;29.20;99.90;;;;;;5026238;28;20054;-81
2021/06/04 12:39:55;;;;;;;22.40;19.38;;;29.00;99.90;;;;;;5023734;28;20057;-83
2021/06/04 12:42:41;;;;;;;21.45;19.25;;;28.70;99.90;;;;;;5024264;28;20054;-82
2021/06/04 12:45:23;;;;;;;21.48;19.38;;;28.70;99.90;;;;;;5024510;28;20057;-82
2021/06/04 12:47:56;;;;;;;22.98;19.88;;;28.70;99.90;;;;;;5024639;28;20057;-80
2021/06/04 12:50:28;;;;;;;20.42;18.42;;;28.60;99.90;;;;;;5024490;28;20054;-83
2021/06/04 12:53:10;;;;;;;22.52;20.20;;;28.40;99.90;;;;;;5024121;28;20073;-83
2021/06/04 12:55:39;;;;;;;21.17;18.77;;;28.50;99.90;;;;;;5020074;28;20108;-83
2021/06/04 12:58:20;;;;;;;21.35;19.30;;;28.60;99.90;;;;;;5021165;28;20046;-83
2021/06/04 13:00:47;;;;;;;22.00;18.83;;;28.50;99.90;;;;;;5020423;28;20068;-82